sensor_id;sensor_type;location;lat;lon;timestamp;pressure;altitude;pressure_sealevel;temperature;humidity
2681;BME280;1350;42.134;24.708;2023-03-22T00:02:25;99047.50;;;12.25;100.00
2681;BME280;1350;42.134;24.708;2023-03-22T00:04:55;99042.38;;;12.22;100.00
2681;BME280;1350;42.134;24.708;2023-03-22T00:07:21;99043.84;;;12.01;100.00
2681;BME280;1350;42.134;24.708;2023-03-22T00:09:48;99034.50;;;12.08;100.00
2681;BME280;1350;42.134;24.708;2023-03-22T00:12:15;99048.94;;;12.04;100.00
2681;BME280;1350;42.134;24.708;2023-03-22T00:14:44;99051.59;;;12.04;100.00
2681;BME280;1350;42.134;24.708;2023-03-22T00:17:11;99043.84;;;12.13;100.00
2681;BME280;1350;42.134;24.708;2023-03-22T00:19:38;99037.81;;;12.24;100.00
2681;BME280;1350;42.134;24.708;2023-03-22T00:22:06;99045.16;;;12.20;100.00
2681;BME280;1350;42.134;24.708;2023-03-22T00:24:33;99045.34;;;12.17;100.00
2681;BME280;1350;42.134;24.708;2023-03-22T00:27:00;99046.19;;;12.05;100.00
2681;BME280;1350;42.134;24.708;2023-03-22T00:29:28;99046.59;;;11.99;100.00
2681;BME280;1350;42.134;24.708;2023-03-22T00:31:57;99038.31;;;12.04;100.00
2681;BME280;1350;42.134;24.708;2023-03-22T00:34:23;99037.28;;;12.19;100.00
2681;BME280;1350;42.134;24.708;2023-03-22T00:36:51;99039.53;;;12.25;100.00
2681;BME280;1350;42.134;24.708;2023-03-22T00:39:18;99039.09;;;12.31;100.00
2681;BME280;1350;42.134;24.708;2023-03-22T00:41:44;99046.16;;;11.93;100.00
2681;BME280;1350;42.134;24.708;2023-03-22T00:44:12;99040.41;;;11.99;100.00
2681;BME280;1350;42.134;24.708;2023-03-22T00:46:38;99033.41;;;11.98;100.00
2681;BME280;1350;42.134;24.708;2023-03-22T00:49:07;99034.03;;;12.01;100.00
2681;BME280;1350;42.134;24.708;2023-03-22T00:51:34;99039.16;;;12.04;100.00
2681;BME280;1350;42.134;24.708;2023-03-22T00:54:01;99033.16;;;11.88;100.00
2681;BME280;1350;42.134;24.708;2023-03-22T00:56:27;99033.38;;;11.85;100.00
2681;BME280;1350;42.134;24.708;2023-03-22T00:58:54;99034.84;;;11.89;100.00
2681;BME280;1350;42.134;24.708;2023-03-22T01:01:21;99029.91;;;11.70;100.00
2681;BME280;1350;42.134;24.708;2023-03-22T01:03:48;99031.22;;;11.77;100.00
2681;BME280;1350;42.134;24.708;2023-03-22T01:06:16;99024.31;;;11.61;100.00
2681;BME280;1350;42.134;24.708;2023-03-22T01:08:43;99026.72;;;11.51;100.00
2681;BME280;1350;42.134;24.708;2023-03-22T01:11:10;99025.38;;;11.58;100.00
2681;BME280;1350;42.134;24.708;2023-03-22T01:13:37;99027.47;;;11.53;100.00
2681;BME280;1350;42.134;24.708;2023-03-22T01:16:07;99027.56;;;11.52;100.00
2681;BME280;1350;42.134;24.708;2023-03-22T01:18:34;99037.28;;;11.39;100.00
2681;BME280;1350;42.134;24.708;2023-03-22T01:21:01;99026.41;;;11.29;100.00
2681;BME280;1350;42.134;24.708;2023-03-22T01:23:29;99019.44;;;11.14;100.00
2681;BME280;1350;42.134;24.708;2023-03-22T01:25:56;99031.16;;;11.24;100.00
2681;BME280;1350;42.134;24.708;2023-03-22T01:28:23;99032.09;;;11.37;100.00
2681;BME280;1350;42.134;24.708;2023-03-22T01:30:50;99038.38;;;11.08;100.00
2681;BME280;1350;42.134;24.708;2023-03-22T01:33:17;99034.28;;;11.17;100.00
2681;BME280;1350;42.134;24.708;2023-03-22T01:35:43;99029.44;;;11.23;100.00
2681;BME280;1350;42.134;24.708;2023-03-22T01:38:10;99031.34;;;11.21;100.00
2681;BME280;1350;42.134;24.708;2023-03-22T01:40:38;99034.28;;;11.17;100.00
2681;BME280;1350;42.134;24.708;2023-03-22T01:43:10;99024.94;;;11.11;100.00
2681;BME280;1350;42.134;24.708;2023-03-22T01:45:41;99010.16;;;10.93;100.00
2681;BME280;1350;42.134;24.708;2023-03-22T01:48:24;99023.41;;;10.93;100.00
2681;BME280;1350;42.134;24.708;2023-03-22T01:51:01;99025.22;;;11.07;100.00
2681;BME280;1350;42.134;24.708;2023-03-22T01:53:34;99027.09;;;11.05;100.00
2681;BME280;1350;42.134;24.708;2023-03-22T01:56:04;99028.81;;;11.06;100.00
2681;BME280;1350;42.134;24.708;2023-03-22T01:58:33;99029.47;;;10.95;100.00
2681;BME280;1350;42.134;24.708;2023-03-22T02:01:01;99030.22;;;11.11;100.00
2681;BME280;1350;42.134;24.708;2023-03-22T02:03:34;99026.03;;;11.21;100.00
2681;BME280;1350;42.134;24.708;2023-03-22T02:06:02;99034.38;;;11.29;100.00
2681;BME280;1350;42.134;24.708;2023-03-22T02:08:30;99038.38;;;11.08;100.00
2681;BME280;1350;42.134;24.708;2023-03-22T02:10:59;99035.66;;;10.96;100.00
2681;BME280;1350;42.134;24.708;2023-03-22T02:13:50;99045.19;;;10.98;100.00
2681;BME280;1350;42.134;24.708;2023-03-22T02:16:29;99041.97;;;11.07;100.00
2681;BME280;1350;42.134;24.708;2023-03-22T02:21:59;99053.06;;;10.86;100.00
2681;BME280;1350;42.134;24.708;2023-03-22T02:24:43;99047.41;;;10.78;100.00
2681;BME280;1350;42.134;24.708;2023-03-22T02:28:00;99056.00;;;10.67;100.00
2681;BME280;1350;42.134;24.708;2023-03-22T02:31:05;99043.69;;;10.66;100.00
2681;BME280;1350;42.134;24.708;2023-03-22T02:33:48;99044.84;;;10.76;100.00
2681;BME280;1350;42.134;24.708;2023-03-22T02:36:41;99046.16;;;10.83;100.00
2681;BME280;1350;42.134;24.708;2023-03-22T02:39:22;99050.06;;;10.64;100.00
2681;BME280;1350;42.134;24.708;2023-03-22T02:42:07;99051.06;;;10.75;100.00
2681;BME280;1350;42.134;24.708;2023-03-22T02:44:41;99054.09;;;10.69;100.00
2681;BME280;1350;42.134;24.708;2023-03-22T02:47:16;99051.34;;;10.57;100.00
2681;BME280;1350;42.134;24.708;2023-03-22T02:49:51;99054.38;;;10.65;100.00
2681;BME280;1350;42.134;24.708;2023-03-22T02:52:25;99059.41;;;10.55;100.00
2681;BME280;1350;42.134;24.708;2023-03-22T02:55:01;99058.38;;;10.58;100.00
2681;BME280;1350;42.134;24.708;2023-03-22T02:57:35;99057.69;;;10.54;100.00
2681;BME280;1350;42.134;24.708;2023-03-22T03:00:07;99063.56;;;10.45;100.00
2681;BME280;1350;42.134;24.708;2023-03-22T03:02:38;99065.56;;;10.56;100.00
2681;BME280;1350;42.134;24.708;2023-03-22T03:05:07;99061.84;;;10.58;100.00
2681;BME280;1350;42.134;24.708;2023-03-22T03:07:37;99061.97;;;10.71;100.00
2681;BME280;1350;42.134;24.708;2023-03-22T03:10:07;99069.63;;;10.61;100.00
2681;BME280;1350;42.134;24.708;2023-03-22T03:12:34;99067.66;;;10.65;100.00
2681;BME280;1350;42.134;24.708;2023-03-22T03:15:01;99064.72;;;10.83;100.00
2681;BME280;1350;42.134;24.708;2023-03-22T03:17:40;99072.78;;;10.82;100.00
2681;BME280;1350;42.134;24.708;2023-03-22T03:20:21;99079.13;;;10.79;100.00
2681;BME280;1350;42.134;24.708;2023-03-22T03:23:04;99074.38;;;10.70;100.00
2681;BME280;1350;42.134;24.708;2023-03-22T03:25:46;99087.63;;;10.70;100.00
2681;BME280;1350;42.134;24.708;2023-03-22T03:28:21;99080.13;;;10.63;100.00
2681;BME280;1350;42.134;24.708;2023-03-22T03:30:59;99079.66;;;10.70;100.00
2681;BME280;1350;42.134;24.708;2023-03-22T03:33:31;99082.22;;;10.72;100.00
2681;BME280;1350;42.134;24.708;2023-03-22T03:36:01;99078.94;;;10.82;100.00
2681;BME280;1350;42.134;24.708;2023-03-22T03:38:33;99078.56;;;10.88;100.00
2681;BME280;1350;42.134;24.708;2023-03-22T03:41:06;99082.13;;;10.73;100.00
2681;BME280;1350;42.134;24.708;2023-03-22T03:43:36;99089.84;;;10.78;100.00
2681;BME280;1350;42.134;24.708;2023-03-22T03:46:05;99082.50;;;10.67;100.00
2681;BME280;1350;42.134;24.708;2023-03-22T03:48:34;99074.72;;;10.50;100.00
2681;BME280;1350;42.134;24.708;2023-03-22T03:51:02;99079.28;;;10.48;100.00
2681;BME280;1350;42.134;24.708;2023-03-22T03:53:30;99084.66;;;10.47;100.00
2681;BME280;1350;42.134;24.708;2023-03-22T03:55:57;99079.97;;;10.52;100.00
2681;BME280;1350;42.134;24.708;2023-03-22T03:58:25;99080.78;;;10.52;100.00
2681;BME280;1350;42.134;24.708;2023-03-22T04:00:54;99077.94;;;10.55;100.00
2681;BME280;1350;42.134;24.708;2023-03-22T04:03:21;99085.84;;;10.71;100.00
2681;BME280;1350;42.134;24.708;2023-03-22T04:05:48;99083.47;;;10.80;100.00
2681;BME280;1350;42.134;24.708;2023-03-22T04:08:15;99092.41;;;10.79;100.00
2681;BME280;1350;42.134;24.708;2023-03-22T04:10:42;99085.56;;;10.75;100.00
2681;BME280;1350;42.134;24.708;2023-03-22T04:13:08;99090.66;;;10.64;100.00
2681;BME280;1350;42.134;24.708;2023-03-22T04:15:37;99093.59;;;10.74;100.00
2681;BME280;1350;42.134;24.708;2023-03-22T04:18:03;99094.56;;;10.73;100.00
2681;BME280;1350;42.134;24.708;2023-03-22T04:20:31;99099.66;;;10.76;100.00
2681;BME280;1350;42.134;24.708;2023-03-22T04:22:58;99110.38;;;10.74;100.00
2681;BME280;1350;42.134;24.708;2023-03-22T04:25:24;99117.13;;;10.50;100.00
2681;BME280;1350;42.134;24.708;2023-03-22T04:27:54;99117.72;;;10.55;100.00
2681;BME280;1350;42.134;24.708;2023-03-22T04:30:21;99117.25;;;10.63;100.00
2681;BME280;1350;42.134;24.708;2023-03-22T04:32:50;99121.13;;;10.57;100.00
2681;BME280;1350;42.134;24.708;2023-03-22T04:35:17;99118.09;;;10.63;100.00
2681;BME280;1350;42.134;24.708;2023-03-22T04:37:44;99114.81;;;10.74;100.00
2681;BME280;1350;42.134;24.708;2023-03-22T04:40:11;99133.34;;;10.60;100.00
2681;BME280;1350;42.134;24.708;2023-03-22T04:42:41;99125.97;;;10.65;100.00
2681;BME280;1350;42.134;24.708;2023-03-22T04:45:09;99119.34;;;10.72;100.00
2681;BME280;1350;42.134;24.708;2023-03-22T04:47:39;99119.94;;;10.77;100.00
2681;BME280;1350;42.134;24.708;2023-03-22T04:50:08;99124.78;;;10.98;100.00
2681;BME280;1350;42.134;24.708;2023-03-22T04:52:35;99131.78;;;11.13;100.00
2681;BME280;1350;42.134;24.708;2023-03-22T04:55:01;99129.34;;;11.24;100.00
2681;BME280;1350;42.134;24.708;2023-03-22T04:57:28;99133.31;;;11.17;100.00
2681;BME280;1350;42.134;24.708;2023-03-22T04:59:55;99128.69;;;11.21;100.00
2681;BME280;1350;42.134;24.708;2023-03-22T05:02:22;99136.72;;;11.33;100.00
2681;BME280;1350;42.134;24.708;2023-03-22T05:04:49;99135.78;;;11.48;100.00
2681;BME280;1350;42.134;24.708;2023-03-22T05:07:17;99137.50;;;11.63;100.00
2681;BME280;1350;42.134;24.708;2023-03-22T05:09:44;99136.81;;;11.74;100.00
2681;BME280;1350;42.134;24.708;2023-03-22T05:12:10;99138.69;;;11.72;100.00
2681;BME280;1350;42.134;24.708;2023-03-22T05:14:37;99140.03;;;11.65;100.00
2681;BME280;1350;42.134;24.708;2023-03-22T05:17:04;99149.59;;;11.67;100.00
2681;BME280;1350;42.134;24.708;2023-03-22T05:19:31;99146.03;;;11.68;100.00
2681;BME280;1350;42.134;24.708;2023-03-22T05:21:57;99150.06;;;11.88;100.00
2681;BME280;1350;42.134;24.708;2023-03-22T05:24:28;99146.13;;;11.93;100.00
2681;BME280;1350;42.134;24.708;2023-03-22T05:26:55;99157.75;;;11.78;100.00
2681;BME280;1350;42.134;24.708;2023-03-22T05:29:25;99156.88;;;11.78;100.00
2681;BME280;1350;42.134;24.708;2023-03-22T05:31:52;99164.84;;;11.78;100.00
2681;BME280;1350;42.134;24.708;2023-03-22T05:34:21;99166.22;;;11.71;100.00
2681;BME280;1350;42.134;24.708;2023-03-22T05:36:48;99171.31;;;11.74;100.00
2681;BME280;1350;42.134;24.708;2023-03-22T05:39:16;99171.78;;;11.80;100.00
2681;BME280;1350;42.134;24.708;2023-03-22T05:41:44;99174.06;;;11.86;100.00
2681;BME280;1350;42.134;24.708;2023-03-22T05:44:11;99171.09;;;11.91;100.00
2681;BME280;1350;42.134;24.708;2023-03-22T05:46:38;99168.75;;;11.86;100.00
2681;BME280;1350;42.134;24.708;2023-03-22T05:49:05;99189.03;;;11.87;100.00
2681;BME280;1350;42.134;24.708;2023-03-22T05:51:31;99195.50;;;11.83;100.00
2681;BME280;1350;42.134;24.708;2023-03-22T05:54:05;99198.53;;;11.92;100.00
2681;BME280;1350;42.134;24.708;2023-03-22T05:56:32;99196.91;;;11.89;100.00
2681;BME280;1350;42.134;24.708;2023-03-22T05:59:01;99198.69;;;11.88;100.00
2681;BME280;1350;42.134;24.708;2023-03-22T06:01:28;99201.25;;;11.90;100.00
2681;BME280;1350;42.134;24.708;2023-03-22T06:03:55;99200.03;;;11.96;100.00
2681;BME280;1350;42.134;24.708;2023-03-22T06:06:22;99203.75;;;11.93;100.00
2681;BME280;1350;42.134;24.708;2023-03-22T06:08:48;99205.75;;;11.89;100.00
2681;BME280;1350;42.134;24.708;2023-03-22T06:11:15;99201.91;;;11.93;100.00
2681;BME280;1350;42.134;24.708;2023-03-22T06:13:43;99211.75;;;12.06;100.00
2681;BME280;1350;42.134;24.708;2023-03-22T06:16:12;99214.97;;;12.11;100.00
2681;BME280;1350;42.134;24.708;2023-03-22T06:18:39;99215.56;;;12.16;100.00
2681;BME280;1350;42.134;24.708;2023-03-22T06:21:05;99220.53;;;12.34;100.00
2681;BME280;1350;42.134;24.708;2023-03-22T06:23:33;99219.75;;;12.32;100.00
2681;BME280;1350;42.134;24.708;2023-03-22T06:25:59;99222.09;;;12.10;100.00
2681;BME280;1350;42.134;24.708;2023-03-22T06:28:26;99228.34;;;12.23;100.00
2681;BME280;1350;42.134;24.708;2023-03-22T06:30:54;99236.84;;;12.42;100.00
2681;BME280;1350;42.134;24.708;2023-03-22T06:33:22;99229.34;;;12.35;100.00
2681;BME280;1350;42.134;24.708;2023-03-22T06:35:49;99238.69;;;12.28;100.00
2681;BME280;1350;42.134;24.708;2023-03-22T06:38:16;99241.69;;;12.36;100.00
2681;BME280;1350;42.134;24.708;2023-03-22T06:40:43;99244.56;;;12.33;100.00
2681;BME280;1350;42.134;24.708;2023-03-22T06:43:10;99259.53;;;12.34;100.00
2681;BME280;1350;42.134;24.708;2023-03-22T06:45:36;99259.03;;;12.15;100.00
2681;BME280;1350;42.134;24.708;2023-03-22T06:48:04;99263.78;;;11.96;100.00
2681;BME280;1350;42.134;24.708;2023-03-22T06:50:32;99271.47;;;12.00;100.00
2681;BME280;1350;42.134;24.708;2023-03-22T06:53:02;99263.50;;;12.00;100.00
2681;BME280;1350;42.134;24.708;2023-03-22T06:55:29;99262.63;;;12.00;100.00
2681;BME280;1350;42.134;24.708;2023-03-22T06:57:58;99255.34;;;12.03;100.00
2681;BME280;1350;42.134;24.708;2023-03-22T07:00:25;99249.44;;;12.12;100.00
2681;BME280;1350;42.134;24.708;2023-03-22T07:02:52;99258.69;;;12.33;100.00
2681;BME280;1350;42.134;24.708;2023-03-22T07:05:19;99260.06;;;12.12;100.00
2681;BME280;1350;42.134;24.708;2023-03-22T07:07:47;99256.72;;;12.23;100.00
2681;BME280;1350;42.134;24.708;2023-03-22T07:10:14;99262.81;;;12.25;100.00
2681;BME280;1350;42.134;24.708;2023-03-22T07:12:41;99256.66;;;12.10;100.00
2681;BME280;1350;42.134;24.708;2023-03-22T07:15:08;99261.69;;;12.41;100.00
2681;BME280;1350;42.134;24.708;2023-03-22T07:17:35;99263.25;;;12.31;100.00
2681;BME280;1350;42.134;24.708;2023-03-22T07:20:02;99251.19;;;12.26;100.00
2681;BME280;1350;42.134;24.708;2023-03-22T07:22:29;99254.09;;;12.09;100.00
2681;BME280;1350;42.134;24.708;2023-03-22T07:24:57;99246.91;;;11.97;100.00
2681;BME280;1350;42.134;24.708;2023-03-22T07:27:24;99238.38;;;11.92;100.00
2681;BME280;1350;42.134;24.708;2023-03-22T07:29:51;99231.94;;;11.81;100.00
2681;BME280;1350;42.134;24.708;2023-03-22T07:32:18;99241.22;;;11.60;100.00
2681;BME280;1350;42.134;24.708;2023-03-22T07:34:46;99233.47;;;11.71;100.00
2681;BME280;1350;42.134;24.708;2023-03-22T07:37:13;99238.66;;;11.59;100.00
2681;BME280;1350;42.134;24.708;2023-03-22T07:39:40;99229.06;;;11.56;100.00
2681;BME280;1350;42.134;24.708;2023-03-22T07:42:08;99238.56;;;11.60;100.00
2681;BME280;1350;42.134;24.708;2023-03-22T07:44:35;99239.72;;;11.70;100.00
2681;BME280;1350;42.134;24.708;2023-03-22T07:47:02;99256.69;;;11.96;100.00
2681;BME280;1350;42.134;24.708;2023-03-22T07:49:29;99261.31;;;12.21;100.00
2681;BME280;1350;42.134;24.708;2023-03-22T07:51:56;99268.88;;;12.27;100.00
2681;BME280;1350;42.134;24.708;2023-03-22T07:54:22;99278.06;;;12.21;100.00
2681;BME280;1350;42.134;24.708;2023-03-22T07:56:49;99283.88;;;12.28;100.00
2681;BME280;1350;42.134;24.708;2023-03-22T07:59:17;99290.81;;;12.57;100.00
2681;BME280;1350;42.134;24.708;2023-03-22T08:01:44;99286.22;;;12.73;100.00
2681;BME280;1350;42.134;24.708;2023-03-22T08:04:11;99294.44;;;12.56;100.00
2681;BME280;1350;42.134;24.708;2023-03-22T08:06:38;99291.97;;;12.79;100.00
2681;BME280;1350;42.134;24.708;2023-03-22T08:09:07;99282.88;;;12.96;100.00
2681;BME280;1350;42.134;24.708;2023-03-22T08:11:34;99285.91;;;13.04;100.00
2681;BME280;1350;42.134;24.708;2023-03-22T08:14:01;99279.78;;;13.16;100.00
2681;BME280;1350;42.134;24.708;2023-03-22T08:16:29;99283.72;;;13.23;100.00
2681;BME280;1350;42.134;24.708;2023-03-22T08:18:57;99282.13;;;13.45;100.00
2681;BME280;1350;42.134;24.708;2023-03-22T08:21:23;99287.78;;;13.41;100.00
2681;BME280;1350;42.134;24.708;2023-03-22T08:23:50;99299.91;;;13.20;100.00
2681;BME280;1350;42.134;24.708;2023-03-22T08:26:17;99299.78;;;12.95;100.00
2681;BME280;1350;42.134;24.708;2023-03-22T08:28:44;99305.81;;;12.84;100.00
2681;BME280;1350;42.134;24.708;2023-03-22T08:31:11;99304.03;;;13.11;100.00
2681;BME280;1350;42.134;24.708;2023-03-22T08:33:40;99311.88;;;13.00;100.00
2681;BME280;1350;42.134;24.708;2023-03-22T08:36:08;99315.91;;;12.79;100.00
2681;BME280;1350;42.134;24.708;2023-03-22T08:38:36;99315.88;;;12.67;100.00
2681;BME280;1350;42.134;24.708;2023-03-22T08:41:04;99318.31;;;12.43;100.00
2681;BME280;1350;42.134;24.708;2023-03-22T08:43:31;99307.53;;;12.59;100.00
2681;BME280;1350;42.134;24.708;2023-03-22T08:45:57;99313.56;;;12.75;100.00
2681;BME280;1350;42.134;24.708;2023-03-22T08:48:24;99318.13;;;12.73;100.00
2681;BME280;1350;42.134;24.708;2023-03-22T08:50:54;99318.34;;;12.70;100.00
2681;BME280;1350;42.134;24.708;2023-03-22T08:53:21;99315.03;;;12.93;100.00
2681;BME280;1350;42.134;24.708;2023-03-22T08:55:48;99313.22;;;13.20;100.00
2681;BME280;1350;42.134;24.708;2023-03-22T08:58:15;99312.38;;;13.32;100.00
2681;BME280;1350;42.134;24.708;2023-03-22T09:00:44;99315.53;;;13.64;100.00
2681;BME280;1350;42.134;24.708;2023-03-22T09:03:11;99305.06;;;13.98;100.00
2681;BME280;1350;42.134;24.708;2023-03-22T09:05:37;99311.78;;;13.91;100.00
2681;BME280;1350;42.134;24.708;2023-03-22T09:08:06;99307.72;;;13.73;100.00
2681;BME280;1350;42.134;24.708;2023-03-22T09:10:33;99311.03;;;13.89;100.00
2681;BME280;1350;42.134;24.708;2023-03-22T09:13:00;99299.72;;;13.73;100.00
2681;BME280;1350;42.134;24.708;2023-03-22T09:15:27;99299.50;;;13.76;100.00
2681;BME280;1350;42.134;24.708;2023-03-22T09:17:53;99296.84;;;13.76;100.00
2681;BME280;1350;42.134;24.708;2023-03-22T09:20:20;99302.47;;;14.22;100.00
2681;BME280;1350;42.134;24.708;2023-03-22T09:22:49;99300.03;;;14.06;100.00
2681;BME280;1350;42.134;24.708;2023-03-22T09:25:18;99303.53;;;14.19;100.00
2681;BME280;1350;42.134;24.708;2023-03-22T09:27:45;99305.38;;;14.19;100.00
2681;BME280;1350;42.134;24.708;2023-03-22T09:30:12;99313.59;;;14.28;100.00
2681;BME280;1350;42.134;24.708;2023-03-22T09:32:39;99316.44;;;14.38;100.00
2681;BME280;1350;42.134;24.708;2023-03-22T09:35:06;99319.25;;;14.60;100.00
2681;BME280;1350;42.134;24.708;2023-03-22T09:37:33;99318.94;;;14.64;100.00
2681;BME280;1350;42.134;24.708;2023-03-22T09:40:00;99316.84;;;14.80;100.00
2681;BME280;1350;42.134;24.708;2023-03-22T09:42:34;99307.41;;;14.87;100.00
2681;BME280;1350;42.134;24.708;2023-03-22T09:45:04;99307.69;;;14.72;100.00
2681;BME280;1350;42.134;24.708;2023-03-22T09:47:34;99305.59;;;14.88;100.00
2681;BME280;1350;42.134;24.708;2023-03-22T09:50:06;99301.28;;;14.74;100.00
2681;BME280;1350;42.134;24.708;2023-03-22T09:52:34;99304.22;;;14.82;100.00
2681;BME280;1350;42.134;24.708;2023-03-22T09:55:01;99293.16;;;14.76;100.00
2681;BME280;1350;42.134;24.708;2023-03-22T09:57:32;99288.81;;;14.62;100.00
2681;BME280;1350;42.134;24.708;2023-03-22T10:00:08;99291.34;;;14.53;100.00
2681;BME280;1350;42.134;24.708;2023-03-22T10:02:51;99284.81;;;14.57;100.00
2681;BME280;1350;42.134;24.708;2023-03-22T10:05:29;99289.22;;;14.69;100.00
2681;BME280;1350;42.134;24.708;2023-03-22T10:08:13;99290.78;;;14.60;100.00
2681;BME280;1350;42.134;24.708;2023-03-22T10:10:44;99287.94;;;14.74;100.00
2681;BME280;1350;42.134;24.708;2023-03-22T10:13:16;99290.31;;;14.90;100.00
2681;BME280;1350;42.134;24.708;2023-03-22T10:15:48;99294.13;;;14.98;100.00
2681;BME280;1350;42.134;24.708;2023-03-22T10:18:18;99291.66;;;15.19;100.00
2681;BME280;1350;42.134;24.708;2023-03-22T10:20:51;99284.88;;;15.26;100.00
2681;BME280;1350;42.134;24.708;2023-03-22T10:23:25;99289.59;;;15.46;100.00
2681;BME280;1350;42.134;24.708;2023-03-22T10:25:55;99283.03;;;15.50;100.00
2681;BME280;1350;42.134;24.708;2023-03-22T10:28:29;99287.44;;;15.51;100.00
2681;BME280;1350;42.134;24.708;2023-03-22T10:30:57;99288.41;;;15.61;100.00
2681;BME280;1350;42.134;24.708;2023-03-22T10:33:30;99281.03;;;15.76;100.00
2681;BME280;1350;42.134;24.708;2023-03-22T10:36:01;99278.00;;;15.80;100.00
2681;BME280;1350;42.134;24.708;2023-03-22T10:38:29;99282.25;;;15.94;100.00
2681;BME280;1350;42.134;24.708;2023-03-22T10:40:58;99280.56;;;15.93;100.00
2681;BME280;1350;42.134;24.708;2023-03-22T10:43:31;99286.84;;;15.92;100.00
2681;BME280;1350;42.134;24.708;2023-03-22T10:46:02;99281.63;;;15.90;100.00
2681;BME280;1350;42.134;24.708;2023-03-22T10:48:31;99273.00;;;15.98;100.00
2681;BME280;1350;42.134;24.708;2023-03-22T10:51:00;99274.84;;;15.86;100.00
2681;BME280;1350;42.134;24.708;2023-03-22T10:53:35;99269.50;;;15.97;100.00
2681;BME280;1350;42.134;24.708;2023-03-22T10:56:05;99260.94;;;16.25;100.00
2681;BME280;1350;42.134;24.708;2023-03-22T10:58:38;99265.56;;;16.45;100.00
2681;BME280;1350;42.134;24.708;2023-03-22T11:01:07;99267.91;;;16.28;100.00
2681;BME280;1350;42.134;24.708;2023-03-22T11:03:37;99273.50;;;16.25;100.00
2681;BME280;1350;42.134;24.708;2023-03-22T11:06:08;99265.84;;;15.98;100.00
2681;BME280;1350;42.134;24.708;2023-03-22T11:08:41;99265.34;;;15.93;100.00
2681;BME280;1350;42.134;24.708;2023-03-22T11:11:16;99262.19;;;15.88;100.00
2681;BME280;1350;42.134;24.708;2023-03-22T11:13:52;99259.41;;;15.90;100.00
2681;BME280;1350;42.134;24.708;2023-03-22T11:16:19;99251.00;;;15.72;100.00
2681;BME280;1350;42.134;24.708;2023-03-22T11:18:46;99252.66;;;15.62;100.00
2681;BME280;1350;42.134;24.708;2023-03-22T11:21:14;99255.34;;;15.62;100.00
2681;BME280;1350;42.134;24.708;2023-03-22T11:23:50;99246.84;;;15.79;100.00
2681;BME280;1350;42.134;24.708;2023-03-22T11:26:25;99247.84;;;16.00;100.00
2681;BME280;1350;42.134;24.708;2023-03-22T11:29:02;99253.81;;;15.93;100.00
2681;BME280;1350;42.134;24.708;2023-03-22T11:31:48;99248.59;;;15.91;100.00
2681;BME280;1350;42.134;24.708;2023-03-22T11:34:20;99245.75;;;16.15;100.00
2681;BME280;1350;42.134;24.708;2023-03-22T11:36:50;99237.47;;;16.29;100.00
2681;BME280;1350;42.134;24.708;2023-03-22T11:39:25;99239.03;;;16.42;100.00
2681;BME280;1350;42.134;24.708;2023-03-22T11:41:55;99238.44;;;16.39;100.00
2681;BME280;1350;42.134;24.708;2023-03-22T11:44:26;99231.13;;;16.41;100.00
2681;BME280;1350;42.134;24.708;2023-03-22T11:46:55;99232.50;;;16.46;100.00
2681;BME280;1350;42.134;24.708;2023-03-22T11:49:36;99233.31;;;16.47;99.79
2681;BME280;1350;42.134;24.708;2023-03-22T11:52:10;99227.81;;;16.59;100.00
2681;BME280;1350;42.134;24.708;2023-03-22T11:54:38;99230.28;;;16.51;100.00
2681;BME280;1350;42.134;24.708;2023-03-22T11:57:12;99231.63;;;16.57;100.00
2681;BME280;1350;42.134;24.708;2023-03-22T11:59:47;99230.34;;;16.72;98.83
2681;BME280;1350;42.134;24.708;2023-03-22T12:02:19;99229.63;;;16.70;96.81
2681;BME280;1350;42.134;24.708;2023-03-22T12:04:51;99234.53;;;16.65;99.47
2681;BME280;1350;42.134;24.708;2023-03-22T12:07:21;99238.88;;;16.66;95.20
2681;BME280;1350;42.134;24.708;2023-03-22T12:09:51;99226.63;;;16.63;98.61
2681;BME280;1350;42.134;24.708;2023-03-22T12:12:24;99231.09;;;16.63;97.48
2681;BME280;1350;42.134;24.708;2023-03-22T12:14:58;99226.75;;;16.62;91.70
2681;BME280;1350;42.134;24.708;2023-03-22T12:17:31;99228.00;;;16.78;93.65
2681;BME280;1350;42.134;24.708;2023-03-22T12:20:06;99228.09;;;16.88;93.84
2681;BME280;1350;42.134;24.708;2023-03-22T12:22:37;99226.47;;;16.97;91.48
2681;BME280;1350;42.134;24.708;2023-03-22T12:25:12;99227.84;;;17.12;94.56
2681;BME280;1350;42.134;24.708;2023-03-22T12:27:45;99227.72;;;17.45;94.18
2681;BME280;1350;42.134;24.708;2023-03-22T12:30:20;99234.22;;;17.52;93.78
2681;BME280;1350;42.134;24.708;2023-03-22T12:32:51;99224.06;;;17.35;91.61
2681;BME280;1350;42.134;24.708;2023-03-22T12:35:25;99226.16;;;17.11;88.63
2681;BME280;1350;42.134;24.708;2023-03-22T12:37:56;99230.09;;;17.07;90.36
2681;BME280;1350;42.134;24.708;2023-03-22T12:40:26;99229.50;;;17.03;88.13
2681;BME280;1350;42.134;24.708;2023-03-22T12:42:59;99225.22;;;17.01;87.46
2681;BME280;1350;42.134;24.708;2023-03-22T12:45:31;99227.78;;;17.02;87.15
2681;BME280;1350;42.134;24.708;2023-03-22T12:48:04;99231.19;;;17.04;86.64
2681;BME280;1350;42.134;24.708;2023-03-22T12:50:35;99225.47;;;16.98;82.17
2681;BME280;1350;42.134;24.708;2023-03-22T12:53:04;99230.28;;;16.94;80.84
2681;BME280;1350;42.134;24.708;2023-03-22T12:55:33;99234.06;;;16.80;82.40
2681;BME280;1350;42.134;24.708;2023-03-22T12:58:04;99231.78;;;16.76;82.46
2681;BME280;1350;42.134;24.708;2023-03-22T13:00:37;99228.78;;;16.69;78.84
2681;BME280;1350;42.134;24.708;2023-03-22T13:03:19;99226.28;;;16.77;74.79
2681;BME280;1350;42.134;24.708;2023-03-22T13:05:52;99223.75;;;16.76;77.97
2681;BME280;1350;42.134;24.708;2023-03-22T13:08:24;99225.81;;;17.04;77.43
2681;BME280;1350;42.134;24.708;2023-03-22T13:11:00;99222.63;;;16.90;73.97
2681;BME280;1350;42.134;24.708;2023-03-22T13:13:34;99230.06;;;16.86;76.46
2681;BME280;1350;42.134;24.708;2023-03-22T13:16:21;99225.22;;;16.80;77.52
2681;BME280;1350;42.134;24.708;2023-03-22T13:19:02;99223.31;;;16.92;79.63
2681;BME280;1350;42.134;24.708;2023-03-22T13:21:42;99223.19;;;16.93;79.94